sensor_id;sensor_type;location;lat;lon;timestamp;P1;durP1;ratioP1;P2;durP2;ratioP2
36745;SDS011;22715;52.182;21.206;2023-07-29T00:01:40;6.47;;;4.07;;
36745;SDS011;22715;52.182;21.206;2023-07-29T00:04:06;3.83;;;3.22;;
36745;SDS011;22715;52.182;21.206;2023-07-29T00:06:31;4.85;;;4.40;;
36745;SDS011;22715;52.182;21.206;2023-07-29T00:08:56;6.05;;;3.20;;
36745;SDS011;22715;52.182;21.206;2023-07-29T00:11:22;3.50;;;2.92;;
36745;SDS011;22715;52.182;21.206;2023-07-29T00:13:47;7.15;;;4.13;;
36745;SDS011;22715;52.182;21.206;2023-07-29T00:16:15;4.38;;;3.97;;
36745;SDS011;22715;52.182;21.206;2023-07-29T00:18:42;4.47;;;3.70;;
36745;SDS011;22715;52.182;21.206;2023-07-29T00:21:07;4.75;;;3.67;;
36745;SDS011;22715;52.182;21.206;2023-07-29T00:23:32;8.88;;;3.70;;
36745;SDS011;22715;52.182;21.206;2023-07-29T00:25:58;3.72;;;3.38;;
36745;SDS011;22715;52.182;21.206;2023-07-29T00:28:23;4.40;;;3.65;;
36745;SDS011;22715;52.182;21.206;2023-07-29T00:30:48;3.92;;;3.50;;
36745;SDS011;22715;52.182;21.206;2023-07-29T00:33:14;4.43;;;4.00;;
36745;SDS011;22715;52.182;21.206;2023-07-29T00:35:39;3.92;;;3.05;;
36745;SDS011;22715;52.182;21.206;2023-07-29T00:38:04;5.78;;;3.90;;
36745;SDS011;22715;52.182;21.206;2023-07-29T00:40:29;3.78;;;3.47;;
36745;SDS011;22715;52.182;21.206;2023-07-29T00:42:55;4.10;;;3.63;;
36745;SDS011;22715;52.182;21.206;2023-07-29T00:45:21;6.10;;;3.42;;
36745;SDS011;22715;52.182;21.206;2023-07-29T00:47:47;3.38;;;3.08;;
36745;SDS011;22715;52.182;21.206;2023-07-29T00:50:13;4.20;;;3.30;;
36745;SDS011;22715;52.182;21.206;2023-07-29T00:52:39;4.07;;;3.50;;
36745;SDS011;22715;52.182;21.206;2023-07-29T00:55:08;6.18;;;4.03;;
36745;SDS011;22715;52.182;21.206;2023-07-29T00:57:33;4.35;;;3.55;;
36745;SDS011;22715;52.182;21.206;2023-07-29T01:00:00;8.15;;;3.95;;
36745;SDS011;22715;52.182;21.206;2023-07-29T01:02:26;4.25;;;3.85;;
36745;SDS011;22715;52.182;21.206;2023-07-29T01:04:54;4.05;;;3.38;;
36745;SDS011;22715;52.182;21.206;2023-07-29T01:07:26;7.50;;;4.43;;
36745;SDS011;22715;52.182;21.206;2023-07-29T01:17:48;5.28;;;4.20;;
36745;SDS011;22715;52.182;21.206;2023-07-29T01:20:15;5.75;;;4.45;;
36745;SDS011;22715;52.182;21.206;2023-07-29T01:22:40;7.57;;;3.83;;
36745;SDS011;22715;52.182;21.206;2023-07-29T01:25:06;4.93;;;4.30;;
36745;SDS011;22715;52.182;21.206;2023-07-29T01:27:32;5.63;;;4.82;;
36745;SDS011;22715;52.182;21.206;2023-07-29T01:29:57;5.53;;;4.57;;
36745;SDS011;22715;52.182;21.206;2023-07-29T01:34:49;7.38;;;4.03;;
36745;SDS011;22715;52.182;21.206;2023-07-29T01:37:19;10.02;;;4.28;;
36745;SDS011;22715;52.182;21.206;2023-07-29T01:39:47;6.22;;;3.88;;
36745;SDS011;22715;52.182;21.206;2023-07-29T01:42:14;4.75;;;4.30;;
36745;SDS011;22715;52.182;21.206;2023-07-29T01:44:40;5.00;;;4.50;;
36745;SDS011;22715;52.182;21.206;2023-07-29T01:47:07;4.75;;;4.25;;
36745;SDS011;22715;52.182;21.206;2023-07-29T01:49:33;6.60;;;4.35;;
36745;SDS011;22715;52.182;21.206;2023-07-29T01:51:58;6.55;;;4.30;;
36745;SDS011;22715;52.182;21.206;2023-07-29T01:54:23;5.13;;;4.32;;
36745;SDS011;22715;52.182;21.206;2023-07-29T01:56:49;7.43;;;5.63;;
36745;SDS011;22715;52.182;21.206;2023-07-29T01:59:16;7.55;;;5.00;;
36745;SDS011;22715;52.182;21.206;2023-07-29T02:01:41;6.90;;;5.47;;
36745;SDS011;22715;52.182;21.206;2023-07-29T02:04:07;7.03;;;4.38;;
36745;SDS011;22715;52.182;21.206;2023-07-29T02:06:32;8.63;;;5.50;;
36745;SDS011;22715;52.182;21.206;2023-07-29T02:08:58;58.30;;;9.18;;
36745;SDS011;22715;52.182;21.206;2023-07-29T02:11:23;62.65;;;8.82;;
36745;SDS011;22715;52.182;21.206;2023-07-29T02:13:53;12.02;;;4.97;;
36745;SDS011;22715;52.182;21.206;2023-07-29T02:16:18;17.98;;;5.30;;
36745;SDS011;22715;52.182;21.206;2023-07-29T02:18:43;35.80;;;6.88;;
36745;SDS011;22715;52.182;21.206;2023-07-29T02:21:08;46.75;;;8.18;;
36745;SDS011;22715;52.182;21.206;2023-07-29T02:23:34;28.73;;;6.45;;
36745;SDS011;22715;52.182;21.206;2023-07-29T02:25:59;31.83;;;6.53;;
36745;SDS011;22715;52.182;21.206;2023-07-29T02:28:24;20.58;;;5.70;;
36745;SDS011;22715;52.182;21.206;2023-07-29T02:30:55;11.35;;;5.80;;
36745;SDS011;22715;52.182;21.206;2023-07-29T02:33:33;18.83;;;5.95;;
36745;SDS011;22715;52.182;21.206;2023-07-29T02:35:58;10.10;;;5.25;;
36745;SDS011;22715;52.182;21.206;2023-07-29T02:38:24;16.25;;;4.65;;
36745;SDS011;22715;52.182;21.206;2023-07-29T02:40:49;8.48;;;5.13;;
36745;SDS011;22715;52.182;21.206;2023-07-29T02:43:14;8.85;;;4.35;;
36745;SDS011;22715;52.182;21.206;2023-07-29T02:45:40;9.57;;;4.43;;
36745;SDS011;22715;52.182;21.206;2023-07-29T02:48:06;10.40;;;4.75;;
36745;SDS011;22715;52.182;21.206;2023-07-29T02:50:31;13.85;;;4.95;;
36745;SDS011;22715;52.182;21.206;2023-07-29T02:52:56;13.38;;;4.40;;
36745;SDS011;22715;52.182;21.206;2023-07-29T02:55:21;10.95;;;5.32;;
36745;SDS011;22715;52.182;21.206;2023-07-29T02:57:47;6.18;;;5.00;;
36745;SDS011;22715;52.182;21.206;2023-07-29T03:00:12;7.10;;;5.53;;
36745;SDS011;22715;52.182;21.206;2023-07-29T03:02:38;5.72;;;4.25;;
36745;SDS011;22715;52.182;21.206;2023-07-29T03:05:03;5.80;;;4.35;;
36745;SDS011;22715;52.182;21.206;2023-07-29T03:07:29;6.97;;;5.68;;
36745;SDS011;22715;52.182;21.206;2023-07-29T03:09:54;7.70;;;5.55;;
36745;SDS011;22715;52.182;21.206;2023-07-29T03:12:19;5.72;;;4.43;;
36745;SDS011;22715;52.182;21.206;2023-07-29T03:14:47;6.22;;;5.22;;
36745;SDS011;22715;52.182;21.206;2023-07-29T03:17:12;5.07;;;3.70;;
36745;SDS011;22715;52.182;21.206;2023-07-29T03:19:38;5.68;;;4.40;;
36745;SDS011;22715;52.182;21.206;2023-07-29T03:22:03;6.93;;;4.43;;
36745;SDS011;22715;52.182;21.206;2023-07-29T03:24:29;6.63;;;4.18;;
36745;SDS011;22715;52.182;21.206;2023-07-29T03:26:54;5.85;;;4.57;;
36745;SDS011;22715;52.182;21.206;2023-07-29T03:29:19;11.82;;;5.47;;
36745;SDS011;22715;52.182;21.206;2023-07-29T03:31:45;35.28;;;7.03;;
36745;SDS011;22715;52.182;21.206;2023-07-29T03:34:10;50.33;;;7.50;;
36745;SDS011;22715;52.182;21.206;2023-07-29T03:36:37;25.42;;;6.97;;
36745;SDS011;22715;52.182;21.206;2023-07-29T03:39:02;6.65;;;4.80;;
36745;SDS011;22715;52.182;21.206;2023-07-29T03:41:28;11.40;;;5.25;;
36745;SDS011;22715;52.182;21.206;2023-07-29T03:43:54;10.40;;;5.90;;
36745;SDS011;22715;52.182;21.206;2023-07-29T03:46:19;17.15;;;5.28;;
36745;SDS011;22715;52.182;21.206;2023-07-29T03:48:46;94.13;;;9.45;;
36745;SDS011;22715;52.182;21.206;2023-07-29T03:51:11;95.22;;;9.90;;
36745;SDS011;22715;52.182;21.206;2023-07-29T03:53:37;11.88;;;5.22;;
36745;SDS011;22715;52.182;21.206;2023-07-29T03:56:02;25.70;;;5.88;;
36745;SDS011;22715;52.182;21.206;2023-07-29T03:58:27;51.80;;;8.95;;
36745;SDS011;22715;52.182;21.206;2023-07-29T04:00:53;56.50;;;8.32;;
36745;SDS011;22715;52.182;21.206;2023-07-29T04:03:18;30.05;;;6.47;;
36745;SDS011;22715;52.182;21.206;2023-07-29T04:05:43;30.38;;;7.60;;
36745;SDS011;22715;52.182;21.206;2023-07-29T04:08:09;82.40;;;9.57;;
36745;SDS011;22715;52.182;21.206;2023-07-29T04:10:35;9.70;;;4.75;;
36745;SDS011;22715;52.182;21.206;2023-07-29T04:13:00;7.63;;;5.70;;
36745;SDS011;22715;52.182;21.206;2023-07-29T04:15:26;8.60;;;5.43;;
36745;SDS011;22715;52.182;21.206;2023-07-29T04:17:51;19.13;;;6.20;;
36745;SDS011;22715;52.182;21.206;2023-07-29T04:20:16;19.50;;;6.10;;
36745;SDS011;22715;52.182;21.206;2023-07-29T04:22:42;12.43;;;5.47;;
36745;SDS011;22715;52.182;21.206;2023-07-29T04:25:07;7.72;;;5.45;;
36745;SDS011;22715;52.182;21.206;2023-07-29T04:27:32;8.85;;;5.18;;
36745;SDS011;22715;52.182;21.206;2023-07-29T04:29:58;36.33;;;7.28;;
36745;SDS011;22715;52.182;21.206;2023-07-29T04:32:23;88.25;;;10.57;;
36745;SDS011;22715;52.182;21.206;2023-07-29T04:34:48;42.05;;;9.52;;
36745;SDS011;22715;52.182;21.206;2023-07-29T04:37:14;31.02;;;10.52;;
36745;SDS011;22715;52.182;21.206;2023-07-29T04:39:39;48.75;;;10.27;;
36745;SDS011;22715;52.182;21.206;2023-07-29T04:42:04;18.92;;;8.50;;
36745;SDS011;22715;52.182;21.206;2023-07-29T04:44:32;94.65;;;12.18;;
36745;SDS011;22715;52.182;21.206;2023-07-29T04:46:58;46.33;;;10.70;;
36745;SDS011;22715;52.182;21.206;2023-07-29T04:49:23;21.58;;;9.48;;
36745;SDS011;22715;52.182;21.206;2023-07-29T04:51:49;51.35;;;11.77;;
36745;SDS011;22715;52.182;21.206;2023-07-29T04:54:14;26.83;;;10.38;;
36745;SDS011;22715;52.182;21.206;2023-07-29T04:56:39;13.48;;;7.97;;
36745;SDS011;22715;52.182;21.206;2023-07-29T04:59:08;16.48;;;9.07;;
36745;SDS011;22715;52.182;21.206;2023-07-29T05:01:33;13.93;;;7.63;;
36745;SDS011;22715;52.182;21.206;2023-07-29T05:03:59;23.80;;;11.95;;
36745;SDS011;22715;52.182;21.206;2023-07-29T05:06:24;21.75;;;13.68;;
36745;SDS011;22715;52.182;21.206;2023-07-29T05:08:49;87.00;;;18.60;;
36745;SDS011;22715;52.182;21.206;2023-07-29T05:11:15;25.45;;;17.42;;
36745;SDS011;22715;52.182;21.206;2023-07-29T05:13:40;34.63;;;16.40;;
36745;SDS011;22715;52.182;21.206;2023-07-29T05:16:05;23.10;;;14.60;;
36745;SDS011;22715;52.182;21.206;2023-07-29T05:18:31;23.20;;;14.70;;
36745;SDS011;22715;52.182;21.206;2023-07-29T05:20:56;91.55;;;18.10;;
36745;SDS011;22715;52.182;21.206;2023-07-29T05:23:21;56.72;;;17.50;;
36745;SDS011;22715;52.182;21.206;2023-07-29T05:25:47;38.20;;;14.68;;
36745;SDS011;22715;52.182;21.206;2023-07-29T05:28:12;55.20;;;14.93;;
36745;SDS011;22715;52.182;21.206;2023-07-29T05:30:37;41.80;;;15.43;;
36745;SDS011;22715;52.182;21.206;2023-07-29T05:33:04;25.80;;;14.63;;
36745;SDS011;22715;52.182;21.206;2023-07-29T05:35:30;18.27;;;14.73;;
36745;SDS011;22715;52.182;21.206;2023-07-29T05:37:55;17.30;;;13.77;;
36745;SDS011;22715;52.182;21.206;2023-07-29T05:40:20;17.70;;;14.63;;
36745;SDS011;22715;52.182;21.206;2023-07-29T05:42:46;18.92;;;14.15;;
36745;SDS011;22715;52.182;21.206;2023-07-29T05:45:12;18.90;;;15.75;;
36745;SDS011;22715;52.182;21.206;2023-07-29T05:47:38;20.95;;;16.58;;
36745;SDS011;22715;52.182;21.206;2023-07-29T05:50:04;22.55;;;16.75;;
36745;SDS011;22715;52.182;21.206;2023-07-29T05:52:32;19.25;;;16.85;;
36745;SDS011;22715;52.182;21.206;2023-07-29T05:54:58;22.38;;;18.50;;
36745;SDS011;22715;52.182;21.206;2023-07-29T05:57:23;19.40;;;16.30;;
36745;SDS011;22715;52.182;21.206;2023-07-29T05:59:48;25.02;;;17.83;;
36745;SDS011;22715;52.182;21.206;2023-07-29T06:02:14;22.70;;;18.80;;
36745;SDS011;22715;52.182;21.206;2023-07-29T06:04:39;21.35;;;18.40;;
36745;SDS011;22715;52.182;21.206;2023-07-29T06:07:05;22.42;;;17.02;;
36745;SDS011;22715;52.182;21.206;2023-07-29T06:09:30;20.95;;;16.58;;
36745;SDS011;22715;52.182;21.206;2023-07-29T06:11:56;21.77;;;18.00;;
36745;SDS011;22715;52.182;21.206;2023-07-29T06:14:21;25.20;;;18.50;;
36745;SDS011;22715;52.182;21.206;2023-07-29T06:16:46;21.42;;;17.67;;
36745;SDS011;22715;52.182;21.206;2023-07-29T06:19:12;20.65;;;16.77;;
36745;SDS011;22715;52.182;21.206;2023-07-29T06:21:38;22.48;;;18.10;;
36745;SDS011;22715;52.182;21.206;2023-07-29T06:24:04;24.67;;;18.08;;
36745;SDS011;22715;52.182;21.206;2023-07-29T06:26:30;21.55;;;18.17;;
36745;SDS011;22715;52.182;21.206;2023-07-29T06:28:55;20.02;;;17.73;;
36745;SDS011;22715;52.182;21.206;2023-07-29T06:31:20;22.20;;;17.83;;
36745;SDS011;22715;52.182;21.206;2023-07-29T06:33:46;22.20;;;17.23;;
36745;SDS011;22715;52.182;21.206;2023-07-29T06:36:11;23.23;;;18.15;;
36745;SDS011;22715;52.182;21.206;2023-07-29T06:38:36;23.70;;;17.67;;
36745;SDS011;22715;52.182;21.206;2023-07-29T06:41:03;20.38;;;17.35;;
36745;SDS011;22715;52.182;21.206;2023-07-29T06:43:29;20.98;;;16.70;;
36745;SDS011;22715;52.182;21.206;2023-07-29T06:45:54;22.43;;;18.20;;
36745;SDS011;22715;52.182;21.206;2023-07-29T06:48:20;23.85;;;18.80;;
36745;SDS011;22715;52.182;21.206;2023-07-29T06:50:45;21.27;;;17.90;;
36745;SDS011;22715;52.182;21.206;2023-07-29T06:53:11;22.13;;;18.63;;
36745;SDS011;22715;52.182;21.206;2023-07-29T06:55:36;23.23;;;18.67;;
36745;SDS011;22715;52.182;21.206;2023-07-29T06:58:02;21.00;;;16.80;;
36745;SDS011;22715;52.182;21.206;2023-07-29T07:00:27;23.00;;;17.48;;
36745;SDS011;22715;52.182;21.206;2023-07-29T07:02:53;23.17;;;18.45;;
36745;SDS011;22715;52.182;21.206;2023-07-29T07:05:18;21.25;;;17.77;;
36745;SDS011;22715;52.182;21.206;2023-07-29T07:07:43;23.63;;;17.55;;
36745;SDS011;22715;52.182;21.206;2023-07-29T07:10:09;24.15;;;18.02;;
36745;SDS011;22715;52.182;21.206;2023-07-29T07:12:34;24.52;;;17.38;;
36745;SDS011;22715;52.182;21.206;2023-07-29T07:15:00;22.23;;;18.02;;
36745;SDS011;22715;52.182;21.206;2023-07-29T07:17:25;26.90;;;18.73;;
36745;SDS011;22715;52.182;21.206;2023-07-29T07:19:50;24.08;;;19.98;;
36745;SDS011;22715;52.182;21.206;2023-07-29T07:22:16;18.48;;;16.00;;
36745;SDS011;22715;52.182;21.206;2023-07-29T07:24:41;19.63;;;17.52;;
36745;SDS011;22715;52.182;21.206;2023-07-29T07:27:07;18.42;;;16.02;;
36745;SDS011;22715;52.182;21.206;2023-07-29T07:29:32;19.80;;;16.08;;
36745;SDS011;22715;52.182;21.206;2023-07-29T07:31:58;18.73;;;16.38;;
36745;SDS011;22715;52.182;21.206;2023-07-29T07:34:23;21.60;;;17.60;;
36745;SDS011;22715;52.182;21.206;2023-07-29T07:36:49;20.00;;;17.15;;
36745;SDS011;22715;52.182;21.206;2023-07-29T07:39:14;17.15;;;15.32;;
36745;SDS011;22715;52.182;21.206;2023-07-29T07:41:40;19.63;;;15.90;;
36745;SDS011;22715;52.182;21.206;2023-07-29T07:44:06;16.45;;;14.68;;
36745;SDS011;22715;52.182;21.206;2023-07-29T07:46:31;17.05;;;14.77;;
36745;SDS011;22715;52.182;21.206;2023-07-29T07:48:56;15.20;;;13.55;;
36745;SDS011;22715;52.182;21.206;2023-07-29T07:51:21;14.77;;;13.23;;
36745;SDS011;22715;52.182;21.206;2023-07-29T07:53:47;13.15;;;11.80;;
36745;SDS011;22715;52.182;21.206;2023-07-29T07:56:13;14.80;;;13.05;;
36745;SDS011;22715;52.182;21.206;2023-07-29T07:58:39;13.80;;;12.33;;
36745;SDS011;22715;52.182;21.206;2023-07-29T08:01:05;14.05;;;12.52;;
36745;SDS011;22715;52.182;21.206;2023-07-29T08:03:31;15.00;;;13.40;;
36745;SDS011;22715;52.182;21.206;2023-07-29T08:05:56;13.65;;;12.25;;
36745;SDS011;22715;52.182;21.206;2023-07-29T08:08:21;14.85;;;13.27;;
36745;SDS011;22715;52.182;21.206;2023-07-29T08:10:47;13.70;;;12.30;;
36745;SDS011;22715;52.182;21.206;2023-07-29T08:13:12;12.02;;;10.27;;
36745;SDS011;22715;52.182;21.206;2023-07-29T08:15:37;12.63;;;11.43;;
36745;SDS011;22715;52.182;21.206;2023-07-29T08:18:03;11.55;;;10.35;;
36745;SDS011;22715;52.182;21.206;2023-07-29T08:20:28;13.25;;;11.95;;
36745;SDS011;22715;52.182;21.206;2023-07-29T08:22:53;12.60;;;10.70;;
36745;SDS011;22715;52.182;21.206;2023-07-29T08:25:19;9.77;;;8.77;;
36745;SDS011;22715;52.182;21.206;2023-07-29T08:27:44;10.95;;;9.85;;
36745;SDS011;22715;52.182;21.206;2023-07-29T08:30:10;11.88;;;10.65;;
36745;SDS011;22715;52.182;21.206;2023-07-29T08:32:35;11.43;;;9.88;;
36745;SDS011;22715;52.182;21.206;2023-07-29T08:35:01;11.48;;;10.35;;
36745;SDS011;22715;52.182;21.206;2023-07-29T08:37:26;10.48;;;8.82;;
36745;SDS011;22715;52.182;21.206;2023-07-29T08:39:52;7.43;;;6.13;;
36745;SDS011;22715;52.182;21.206;2023-07-29T08:42:19;7.88;;;7.15;;
36745;SDS011;22715;52.182;21.206;2023-07-29T08:44:44;8.45;;;7.65;;
36745;SDS011;22715;52.182;21.206;2023-07-29T08:47:10;9.90;;;8.98;;
36745;SDS011;22715;52.182;21.206;2023-07-29T08:49:36;8.57;;;7.45;;
36745;SDS011;22715;52.182;21.206;2023-07-29T08:52:01;8.82;;;7.93;;
36745;SDS011;22715;52.182;21.206;2023-07-29T08:54:27;8.68;;;7.85;;
36745;SDS011;22715;52.182;21.206;2023-07-29T08:56:53;7.10;;;6.40;;
36745;SDS011;22715;52.182;21.206;2023-07-29T08:59:18;7.22;;;6.53;;
36745;SDS011;22715;52.182;21.206;2023-07-29T09:01:44;8.27;;;7.20;;
36745;SDS011;22715;52.182;21.206;2023-07-29T09:04:09;6.13;;;5.60;;
36745;SDS011;22715;52.182;21.206;2023-07-29T09:06:37;7.53;;;5.97;;
36745;SDS011;22715;52.182;21.206;2023-07-29T09:09:04;5.95;;;4.75;;
36745;SDS011;22715;52.182;21.206;2023-07-29T09:11:30;6.72;;;5.47;;
36745;SDS011;22715;52.182;21.206;2023-07-29T09:13:56;6.53;;;5.93;;
36745;SDS011;22715;52.182;21.206;2023-07-29T09:16:21;6.93;;;5.55;;
36745;SDS011;22715;52.182;21.206;2023-07-29T09:18:48;5.15;;;4.65;;
36745;SDS011;22715;52.182;21.206;2023-07-29T09:21:15;6.28;;;5.60;;
36745;SDS011;22715;52.182;21.206;2023-07-29T09:23:44;5.65;;;5.15;;
36745;SDS011;22715;52.182;21.206;2023-07-29T09:26:09;6.25;;;4.85;;
36745;SDS011;22715;52.182;21.206;2023-07-29T09:28:39;3.80;;;3.50;;
36745;SDS011;22715;52.182;21.206;2023-07-29T09:31:04;3.90;;;3.50;;
36745;SDS011;22715;52.182;21.206;2023-07-29T09:33:32;3.88;;;3.58;;
36745;SDS011;22715;52.182;21.206;2023-07-29T09:35:59;3.78;;;3.42;;
36745;SDS011;22715;52.182;21.206;2023-07-29T09:38:28;2.50;;;2.30;;
36745;SDS011;22715;52.182;21.206;2023-07-29T09:40:57;2.80;;;2.47;;
36745;SDS011;22715;52.182;21.206;2023-07-29T09:43:29;2.72;;;2.08;;
36745;SDS011;22715;52.182;21.206;2023-07-29T09:45:56;3.03;;;2.65;;
36745;SDS011;22715;52.182;21.206;2023-07-29T09:48:24;2.60;;;2.40;;
36745;SDS011;22715;52.182;21.206;2023-07-29T09:50:49;3.03;;;2.75;;
36745;SDS011;22715;52.182;21.206;2023-07-29T09:53:15;2.22;;;2.03;;
36745;SDS011;22715;52.182;21.206;2023-07-29T09:55:40;3.03;;;2.83;;
36745;SDS011;22715;52.182;21.206;2023-07-29T10:00:37;5.72;;;2.38;;
36745;SDS011;22715;52.182;21.206;2023-07-29T10:03:04;2.55;;;2.35;;
36745;SDS011;22715;52.182;21.206;2023-07-29T10:05:29;2.40;;;2.20;;
36745;SDS011;22715;52.182;21.206;2023-07-29T10:07:54;3.53;;;2.67;;
36745;SDS011;22715;52.182;21.206;2023-07-29T10:10:20;2.58;;;2.38;;
36745;SDS011;22715;52.182;21.206;2023-07-29T10:12:46;8.57;;;2.42;;
36745;SDS011;22715;52.182;21.206;2023-07-29T10:15:11;2.92;;;2.60;;
36745;SDS011;22715;52.182;21.206;2023-07-29T10:17:37;5.30;;;3.17;;
36745;SDS011;22715;52.182;21.206;2023-07-29T10:20:06;2.38;;;2.25;;
36745;SDS011;22715;52.182;21.206;2023-07-29T10:22:40;2.97;;;2.30;;
36745;SDS011;22715;52.182;21.206;2023-07-29T10:25:15;2.33;;;2.13;;
36745;SDS011;22715;52.182;21.206;2023-07-29T10:27:52;2.95;;;2.33;;
36745;SDS011;22715;52.182;21.206;2023-07-29T10:30:21;2.92;;;2.60;;
36745;SDS011;22715;52.182;21.206;2023-07-29T10:32:48;2.63;;;2.42;;
36745;SDS011;22715;52.182;21.206;2023-07-29T10:35:14;3.22;;;1.95;;
36745;SDS011;22715;52.182;21.206;2023-07-29T10:37:40;2.45;;;2.25;;
36745;SDS011;22715;52.182;21.206;2023-07-29T10:40:06;5.35;;;2.45;;
36745;SDS011;22715;52.182;21.206;2023-07-29T10:42:34;3.20;;;2.60;;
36745;SDS011;22715;52.182;21.206;2023-07-29T10:45:00;2.22;;;2.03;;
36745;SDS011;22715;52.182;21.206;2023-07-29T10:47:26;2.23;;;2.07;;
36745;SDS011;22715;52.182;21.206;2023-07-29T10:49:52;2.50;;;2.30;;
36745;SDS011;22715;52.182;21.206;2023-07-29T10:55:00;3.88;;;2.55;;
36745;SDS011;22715;52.182;21.206;2023-07-29T10:57:33;3.88;;;2.33;;
36745;SDS011;22715;52.182;21.206;2023-07-29T10:59:58;3.05;;;2.75;;
36745;SDS011;22715;52.182;21.206;2023-07-29T11:02:31;2.65;;;2.28;;
36745;SDS011;22715;52.182;21.206;2023-07-29T11:04:56;3.45;;;2.40;;
36745;SDS011;22715;52.182;21.206;2023-07-29T11:07:22;2.75;;;1.90;;
36745;SDS011;22715;52.182;21.206;2023-07-29T11:09:52;2.10;;;1.65;;
36745;SDS011;22715;52.182;21.206;2023-07-29T11:15:03;2.38;;;2.17;;
36745;SDS011;22715;52.182;21.206;2023-07-29T11:17:29;2.40;;;2.20;;
36745;SDS011;22715;52.182;21.206;2023-07-29T11:19:55;2.30;;;2.15;;
36745;SDS011;22715;52.182;21.206;2023-07-29T11:22:21;2.55;;;2.35;;
36745;SDS011;22715;52.182;21.206;2023-07-29T11:24:47;2.38;;;2.17;;
36745;SDS011;22715;52.182;21.206;2023-07-29T11:27:12;2.53;;;1.97;;
36745;SDS011;22715;52.182;21.206;2023-07-29T11:29:37;18.88;;;6.50;;
36745;SDS011;22715;52.182;21.206;2023-07-29T11:32:02;11.85;;;6.50;;
36745;SDS011;22715;52.182;21.206;2023-07-29T11:34:33;5.45;;;2.17;;
36745;SDS011;22715;52.182;21.206;2023-07-29T11:36:59;2.63;;;2.17;;
36745;SDS011;22715;52.182;21.206;2023-07-29T11:39:24;40.60;;;16.67;;
36745;SDS011;22715;52.182;21.206;2023-07-29T11:41:49;35.38;;;14.32;;
36745;SDS011;22715;52.182;21.206;2023-07-29T11:44:18;2.10;;;2.00;;
36745;SDS011;22715;52.182;21.206;2023-07-29T11:46:44;23.33;;;8.35;;
36745;SDS011;22715;52.182;21.206;2023-07-29T11:49:10;5.50;;;3.08;;
36745;SDS011;22715;52.182;21.206;2023-07-29T11:51:38;26.10;;;11.55;;
36745;SDS011;22715;52.182;21.206;2023-07-29T11:54:03;6.70;;;3.50;;
36745;SDS011;22715;52.182;21.206;2023-07-29T11:56:29;2.50;;;1.92;;
36745;SDS011;22715;52.182;21.206;2023-07-29T11:58:58;1.80;;;1.70;;
36745;SDS011;22715;52.182;21.206;2023-07-29T12:01:23;2.35;;;1.92;;
36745;SDS011;22715;52.182;21.206;2023-07-29T12:06:39;7.32;;;4.38;;
36745;SDS011;22715;52.182;21.206;2023-07-29T12:09:15;3.00;;;2.47;;
36745;SDS011;22715;52.182;21.206;2023-07-29T12:11:43;9.38;;;3.92;;
36745;SDS011;22715;52.182;21.206;2023-07-29T12:14:12;10.20;;;6.63;;
36745;SDS011;22715;52.182;21.206;2023-07-29T12:16:41;19.80;;;9.88;;
36745;SDS011;22715;52.182;21.206;2023-07-29T12:19:06;32.47;;;17.00;;
36745;SDS011;22715;52.182;21.206;2023-07-29T12:21:32;35.13;;;18.75;;
36745;SDS011;22715;52.182;21.206;2023-07-29T12:23:57;2.53;;;1.95;;
36745;SDS011;22715;52.182;21.206;2023-07-29T12:26:26;2.67;;;2.05;;
36745;SDS011;22715;52.182;21.206;2023-07-29T12:28:52;2.17;;;1.70;;
36745;SDS011;22715;52.182;21.206;2023-07-29T12:31:17;2.10;;;1.70;;
36745;SDS011;22715;52.182;21.206;2023-07-29T12:33:42;2.47;;;2.20;;
36745;SDS011;22715;52.182;21.206;2023-07-29T12:36:08;3.05;;;2.47;;
36745;SDS011;22715;52.182;21.206;2023-07-29T12:38:36;7.75;;;5.25;;
36745;SDS011;22715;52.182;21.206;2023-07-29T12:41:01;2.90;;;2.60;;
36745;SDS011;22715;52.182;21.206;2023-07-29T12:43:27;7.03;;;4.20;;
36745;SDS011;22715;52.182;21.206;2023-07-29T12:45:53;5.10;;;2.80;;
36745;SDS011;22715;52.182;21.206;2023-07-29T12:48:21;4.47;;;3.08;;
36745;SDS011;22715;52.182;21.206;2023-07-29T12:50:46;5.20;;;3.13;;
36745;SDS011;22715;52.182;21.206;2023-07-29T12:53:12;10.75;;;5.78;;
36745;SDS011;22715;52.182;21.206;2023-07-29T12:55:37;5.85;;;3.58;;
36745;SDS011;22715;52.182;21.206;2023-07-29T12:58:03;3.38;;;2.60;;
36745;SDS011;22715;52.182;21.206;2023-07-29T13:00:28;5.50;;;4.07;;
36745;SDS011;22715;52.182;21.206;2023-07-29T13:02:54;5.88;;;2.78;;
36745;SDS011;22715;52.182;21.206;2023-07-29T13:05:19;4.80;;;3.45;;
36745;SDS011;22715;52.182;21.206;2023-07-29T13:07:44;4.82;;;3.92;;
36745;SDS011;22715;52.182;21.206;2023-07-29T13:10:13;9.70;;;4.68;;
36745;SDS011;22715;52.182;21.206;2023-07-29T13:12:46;4.60;;;2.85;;
36745;SDS011;22715;52.182;21.206;2023-07-29T13:18:16;4.72;;;2.78;;
36745;SDS011;22715;52.182;21.206;2023-07-29T13:20:41;2.58;;;2.38;;
36745;SDS011;22715;52.182;21.206;2023-07-29T13:23:07;2.95;;;2.45;;
36745;SDS011;22715;52.182;21.206;2023-07-29T13:25:32;4.20;;;2.75;;
36745;SDS011;22715;52.182;21.206;2023-07-29T13:27:57;3.15;;;2.85;;
36745;SDS011;22715;52.182;21.206;2023-07-29T13:30:23;4.40;;;2.60;;
36745;SDS011;22715;52.182;21.206;2023-07-29T13:32:48;4.75;;;3.33;;
36745;SDS011;22715;52.182;21.206;2023-07-29T13:35:13;3.28;;;2.97;;
36745;SDS011;22715;52.182;21.206;2023-07-29T13:37:38;2.28;;;2.08;;
36745;SDS011;22715;52.182;21.206;2023-07-29T13:40:04;2.13;;;1.92;;
36745;SDS011;22715;52.182;21.206;2023-07-29T13:42:29;3.28;;;2.88;;
36745;SDS011;22715;52.182;21.206;2023-07-29T13:44:55;4.90;;;2.92;;
36745;SDS011;22715;52.182;21.206;2023-07-29T13:47:20;2.88;;;2.13;;
36745;SDS011;22715;52.182;21.206;2023-07-29T13:49:45;3.42;;;2.75;;
36745;SDS011;22715;52.182;21.206;2023-07-29T13:52:12;4.55;;;3.10;;
36745;SDS011;22715;52.182;21.206;2023-07-29T13:54:37;3.75;;;3.30;;
36745;SDS011;22715;52.182;21.206;2023-07-29T13:57:04;3.75;;;3.33;;
36745;SDS011;22715;52.182;21.206;2023-07-29T13:59:38;9.20;;;3.88;;
36745;SDS011;22715;52.182;21.206;2023-07-29T14:02:04;2.38;;;1.92;;
36745;SDS011;22715;52.182;21.206;2023-07-29T14:04:29;3.05;;;2.38;;
36745;SDS011;22715;52.182;21.206;2023-07-29T14:06:55;3.80;;;3.25;;
36745;SDS011;22715;52.182;21.206;2023-07-29T14:09:20;8.00;;;4.63;;
36745;SDS011;22715;52.182;21.206;2023-07-29T14:11:45;1.42;;;1.33;;
36745;SDS011;22715;52.182;21.206;2023-07-29T14:14:10;6.37;;;2.73;;
36745;SDS011;22715;52.182;21.206;2023-07-29T14:16:36;3.90;;;2.28;;
36745;SDS011;22715;52.182;21.206;2023-07-29T14:19:01;5.47;;;2.67;;
36745;SDS011;22715;52.182;21.206;2023-07-29T14:21:27;4.25;;;2.85;;
36745;SDS011;22715;52.182;21.206;2023-07-29T14:24:10;3.05;;;2.00;;
36745;SDS011;22715;52.182;21.206;2023-07-29T14:26:35;1.67;;;1.52;;
36745;SDS011;22715;52.182;21.206;2023-07-29T14:29:01;1.80;;;1.70;;
36745;SDS011;22715;52.182;21.206;2023-07-29T14:31:26;2.65;;;1.38;;
36745;SDS011;22715;52.182;21.206;2023-07-29T14:33:51;1.60;;;1.50;;
36745;SDS011;22715;52.182;21.206;2023-07-29T14:36:17;1.73;;;1.63;;
36745;SDS011;22715;52.182;21.206;2023-07-29T14:38:42;1.92;;;1.83;;
36745;SDS011;22715;52.182;21.206;2023-07-29T14:41:08;3.80;;;3.13;;
36745;SDS011;22715;52.182;21.206;2023-07-29T14:43:33;4.38;;;2.70;;